MAPA DE AEROPUERTO

INFORMACIÓN METAR y TAF


Deprecated: The each() function is deprecated. This message will be suppressed on further calls in /home/customer/www/clickair-va.com/public_html/VAM/vam/helpers/get_metar.php on line 20
METAR FOR LECO
ADDS - METARS form results

(0521 UTC 16 January 2023)
Data provider http://aviationweather.gov/metar/data/
 
METAR text: LECO 160500Z 28017G30KT 240V320 9999 -RA SCT017 BKN039 13/11 Q1014 TEMPO 3000 RA BKN010
Conditions at: LECO (LA CORUNA/ALVEDR, ES) observed 0500 UTC 16 January 2023
Temperature: 13.0°C (55°F)
Dewpoint: 11.0°C (52°F) [RH = 88%]
Pressure (altimeter): 29.94 inches Hg (1014.0 mb)
Winds: from the W (280 degrees) at 20 MPH (17 knots; 8.7 m/s)
gusting to 34 MPH (30 knots; 15.4 m/s)
Visibility: 6 or more miles (10+ km)
Ceiling: 3900 feet AGL
Clouds: scattered clouds at 1700 feet AGL
broken clouds at 3900 feet AGL
Weather: -RA  (light rain)

METAR text: LECO 160430Z 28016G32KT 230V340 3500 -RA BKN017 BKN026 13/11 Q1014 TEMPO RA BKN010
Conditions at: LECO (LA CORUNA/ALVEDR, ES) observed 0430 UTC 16 January 2023
Temperature: 13.0°C (55°F)
Dewpoint: 11.0°C (52°F) [RH = 88%]
Pressure (altimeter): 29.94 inches Hg (1014.0 mb)
Winds: from the W (280 degrees) at 18 MPH (16 knots; 8.2 m/s)
gusting to 37 MPH (32 knots; 16.5 m/s)
Visibility: 2.17 miles (3.49 km)
Ceiling: 1700 feet AGL
Clouds: broken clouds at 1700 feet AGL
broken clouds at 2600 feet AGL
Weather: -RA  (light rain)

Forecast for: LECO (LA CORUNA/ALVEDR, ES)
Text: TAF LECO 160200Z 1603/1703 27015KT 9999 BKN045 TX14/1614Z TN10/1607Z
Forecast period: 0300 UTC 16 January 2023 to 0300 UTC 17 January 2023
Forecast type: FROM: standard forecast or significant change
Winds: from the W (270 degrees) at 17 MPH (15 knots; 7.7 m/s)
Visibility: 6 or more miles (10+ km)
Ceiling: 4500 feet AGL
Clouds: broken clouds at 4500 feet AGL
Weather: no significant weather forecast for this period
Text: TEMPO 1603/1703 25020G30KT
Forecast period: 0300 UTC 16 January 2023 to 0300 UTC 17 January 2023
Forecast type: TEMPORARY: The following changes expected for less than half the time period
Winds: from the WSW (250 degrees) at 23 MPH (20 knots; 10.3 m/s)
gusting to 34 MPH (30 knots; 15.4 m/s)
Visibility: missing
Ceiling: unknown
Clouds: missing
Weather: no significant weather forecast for this period
Text: TEMPO 1603/1703 3000 RA BKN010
Forecast period: 0300 UTC 16 January 2023 to 0300 UTC 17 January 2023
Forecast type: TEMPORARY: The following changes expected for less than half the time period
Visibility: 1.86 miles (2.99 km)
Ceiling: 1000 feet AGL
Clouds: broken clouds at 1000 feet AGL
Weather: RA  (moderate rain)